This is the latest recevied weather packets stored in our database for station/object SP5IZJ-2. If no packets are shown the sender has not sent any weather packets the latest 10 day(s).
| Time | Temp. | Humidity | Pressure | Rain* | Wind** | Luminosity | Snow |
|---|---|---|---|---|---|---|---|
| 1777988092 | 31.67° C | 28% | 998.4 hPa | 0 mm | - | - | - |
| 1777987252 | 28.33° C | 30% | 998.5 hPa | 0 mm | - | - | - |
| 1777985993 | 27.78° C | 30% | 998.7 hPa | 0 mm | - | - | - |
| 1777985573 | 27.22° C | 31% | 998.8 hPa | 0 mm | - | - | - |
| 1777984314 | 27.78° C | 30% | 999 hPa | 0 mm | - | - | - |
| 1777983896 | 27.22° C | 30% | 999.1 hPa | 0 mm | - | - | - |
| 1777983474 | 27.78° C | 29% | 999.2 hPa | 0 mm | - | - | - |
| 1777982214 | 30.56° C | 27% | 999.4 hPa | 0 mm | - | - | - |
| 1777981795 | 30.56° C | 29% | 999.5 hPa | 0 mm | - | - | - |
| 1777980535 | 29.44° C | 32% | 999.5 hPa | 0 mm | - | - | - |
| 1777979276 | 32.22° C | 31% | 999.8 hPa | 0 mm | - | - | - |
| 1777978856 | 31.11° C | 33% | 1000 hPa | 0 mm | - | - | - |
| 1777978018 | 30.56° C | 32% | 1000.3 hPa | 0 mm | - | - | - |
| 1777976757 | 30° C | 34% | 1000.4 hPa | 0 mm | - | - | - |
| 1777975917 | 31.67° C | 34% | 1000.7 hPa | 0 mm | - | - | - |
| 1777975497 | 31.11° C | 34% | 1000.8 hPa | 0 mm | - | - | - |
| 1777974658 | 31.11° C | 33% | 1001 hPa | 0 mm | - | - | - |
| 1777974238 | 31.11° C | 34% | 1001.2 hPa | 0 mm | - | - | - |
| 1777973818 | 30° C | 36% | 1001.1 hPa | 0 mm | - | - | - |
| 1777969202 | 28.33° C | 39% | 1001.9 hPa | 0 mm | - | - | - |
| 1777968360 | 28.33° C | 43% | 1001.7 hPa | 0 mm | - | - | - |
| 1777967940 | 26.67° C | 43% | 1001.7 hPa | 0 mm | - | - | - |
| 1777966681 | 24.44° C | 47% | 1001.8 hPa | 0 mm | - | - | - |
| 1777966261 | 24.44° C | 47% | 1001.9 hPa | 0 mm | - | - | - |
| 1777965841 | 24.44° C | 48% | 1002 hPa | 0 mm | - | - | - |
* Rain latest hour (hover to see other rain measurements)
** Current wind speed in m/s (hover to see current wind gust speed)